Time;durP1;ratioP1;P1;durP2;ratioP2;P2;SDS_P1;SDS_P2;PMS_P1;PMS_P2;Temp;Humidity;BMP_temperature;BMP_pressure;BME280_temperature;BME280_humidity;BME280_pressure;Samples;Min_cycle;Max_cycle;Signal;HPM_P1;HPM_P2
2022/11/16 00:00:10;;;;;;;5.15;3.40;;;12.60;99.90;;;;;;4204604;28;20032;-63
2022/11/16 00:02:12;;;;;;;5.30;2.80;;;12.60;99.90;;;;;;4203082;28;20119;-63
2022/11/16 00:04:12;;;;;;;4.97;3.08;;;12.60;99.90;;;;;;4202676;28;20051;-62
2022/11/16 00:06:14;;;;;;;5.93;3.42;;;12.50;99.90;;;;;;4197437;28;20036;-62
2022/11/16 00:08:14;;;;;;;4.93;3.50;;;12.60;99.90;;;;;;4198361;28;20031;-62
2022/11/16 00:10:15;;;;;;;6.38;2.88;;;12.60;99.90;;;;;;4196611;28;20105;-62
2022/11/16 00:12:16;;;;;;;4.43;3.22;;;12.60;99.90;;;;;;4201871;28;20039;-62
2022/11/16 00:14:18;;;;;;;6.57;3.50;;;12.60;99.90;;;;;;4198558;28;20044;-62
2022/11/16 00:16:19;;;;;;;6.78;3.78;;;12.60;99.90;;;;;;4198841;28;20525;-63
2022/11/16 00:18:19;;;;;;;6.03;3.15;;;12.60;99.90;;;;;;4205860;28;20029;-62
2022/11/16 00:20:20;;;;;;;4.97;3.67;;;12.60;99.90;;;;;;4199907;28;20036;-62
2022/11/16 00:22:20;;;;;;;5.28;3.60;;;12.60;99.90;;;;;;4198718;28;20033;-62
2022/11/16 00:24:22;;;;;;;5.25;3.05;;;12.60;99.90;;;;;;4195665;28;20077;-62
2022/11/16 00:26:23;;;;;;;5.63;3.35;;;12.60;99.90;;;;;;4198144;28;20056;-62
2022/11/16 00:28:23;;;;;;;4.82;3.33;;;12.60;99.90;;;;;;4201121;28;20494;-62
2022/11/16 00:30:24;;;;;;;5.13;3.53;;;12.60;99.90;;;;;;4201083;28;20074;-62
2022/11/16 00:32:24;;;;;;;4.60;3.33;;;12.60;99.90;;;;;;4208855;28;20032;-62
2022/11/16 00:34:25;;;;;;;4.70;3.33;;;12.60;99.90;;;;;;4208012;28;20017;-62
2022/11/16 00:36:26;;;;;;;6.78;3.55;;;12.60;99.90;;;;;;4195714;28;20082;-62
2022/11/16 00:38:27;;;;;;;6.55;3.70;;;12.60;99.90;;;;;;4206492;28;20483;-62
2022/11/16 00:40:27;;;;;;;4.22;2.95;;;12.60;99.90;;;;;;4197477;28;20032;-62
2022/11/16 00:42:28;;;;;;;4.45;3.22;;;12.70;99.90;;;;;;4196264;28;20037;-62
2022/11/16 00:44:28;;;;;;;5.68;3.70;;;12.70;99.90;;;;;;4208557;28;20036;-66
2022/11/16 00:46:29;;;;;;;5.28;3.65;;;12.60;99.90;;;;;;4197239;28;20101;-63
2022/11/16 00:48:30;;;;;;;4.78;3.47;;;12.60;99.90;;;;;;4198544;28;20024;-62
2022/11/16 00:50:30;;;;;;;5.28;3.10;;;12.60;99.90;;;;;;4202537;28;20082;-62
2022/11/16 00:52:31;;;;;;;6.72;3.33;;;12.60;99.90;;;;;;4200998;28;20084;-62
2022/11/16 00:54:32;;;;;;;5.90;4.28;;;12.70;99.90;;;;;;4196872;28;20037;-62
2022/11/16 00:56:32;;;;;;;4.53;3.40;;;12.70;99.90;;;;;;4199189;28;20089;-62
2022/11/16 00:58:33;;;;;;;3.78;3.17;;;12.60;99.90;;;;;;4198890;28;20483;-62
2022/11/16 01:00:34;;;;;;;4.97;3.63;;;12.60;99.90;;;;;;4199609;28;20028;-62
2022/11/16 01:02:34;;;;;;;5.75;3.88;;;12.60;99.90;;;;;;4202771;28;20029;-62
2022/11/16 01:04:35;;;;;;;6.07;3.90;;;12.60;99.90;;;;;;4194941;28;20064;-61
2022/11/16 01:06:35;;;;;;;6.40;3.67;;;12.60;99.90;;;;;;4207689;28;20479;-61
2022/11/16 01:08:38;;;;;;;5.18;3.42;;;12.60;99.90;;;;;;4205462;28;20060;-61
2022/11/16 01:10:40;;;;;;;8.02;3.90;;;12.60;99.90;;;;;;4197626;28;20029;-62
2022/11/16 01:12:40;;;;;;;4.72;3.60;;;12.60;99.90;;;;;;4209011;28;20111;-62
2022/11/16 01:14:43;;;;;;;6.40;3.75;;;12.60;99.90;;;;;;4198868;28;20086;-62
2022/11/16 01:16:44;;;;;;;8.35;4.55;;;12.70;99.90;;;;;;4198057;28;20066;-61
2022/11/16 01:18:50;;;;;;;5.43;3.67;;;12.60;99.90;;;;;;4201460;28;20032;-61
2022/11/16 01:20:52;;;;;;;5.55;3.53;;;12.60;99.90;;;;;;4205612;28;20043;-61
2022/11/16 01:22:53;;;;;;;5.70;3.83;;;12.60;99.90;;;;;;4203887;28;20995;-61
2022/11/16 01:24:53;;;;;;;6.55;3.90;;;12.60;99.90;;;;;;4206436;28;20441;-61
2022/11/16 01:26:57;;;;;;;6.97;3.70;;;12.60;99.90;;;;;;4203564;28;20066;-61
2022/11/16 01:28:58;;;;;;;5.97;3.90;;;12.60;99.90;;;;;;4205228;28;20020;-61
2022/11/16 01:30:59;;;;;;;5.68;3.92;;;12.60;99.90;;;;;;4221927;28;20053;-61
2022/11/16 01:32:59;;;;;;;5.72;3.65;;;12.60;99.90;;;;;;4216921;28;20111;-62
2022/11/16 01:35:00;;;;;;;5.35;3.83;;;12.60;99.90;;;;;;4216878;28;20034;-62
2022/11/16 01:37:01;;;;;;;5.82;3.78;;;12.60;99.90;;;;;;4213080;28;20089;-61
2022/11/16 01:39:03;;;;;;;6.72;3.75;;;12.60;99.90;;;;;;4214519;28;20034;-61
2022/11/16 01:41:04;;;;;;;7.90;4.15;;;12.60;99.90;;;;;;4216521;28;20059;-61
2022/11/16 01:43:16;;;;;;;6.65;4.10;;;12.60;99.90;;;;;;4217258;28;20030;-61
2022/11/16 01:45:43;;;;;;;6.47;4.22;;;12.60;99.90;;;;;;4216927;28;20036;-61
2022/11/16 01:47:44;;;;;;;6.90;4.57;;;12.50;99.90;;;;;;4215336;28;20023;-61
2022/11/16 01:49:48;;;;;;;7.35;4.53;;;12.50;99.90;;;;;;4218043;28;20039;-61
2022/11/16 01:51:54;;;;;;;6.78;4.38;;;12.50;99.90;;;;;;4214128;28;20518;-61
2022/11/16 01:53:57;;;;;;;6.57;4.20;;;12.50;99.90;;;;;;4216620;28;20062;-61
2022/11/16 01:55:57;;;;;;;5.93;4.25;;;12.50;99.90;;;;;;4217485;28;20432;-61
2022/11/16 01:57:59;;;;;;;6.07;3.90;;;12.50;99.90;;;;;;4215059;28;20032;-61
2022/11/16 02:00:04;;;;;;;6.70;4.13;;;12.50;99.90;;;;;;4217870;28;20040;-65
2022/11/16 02:02:05;;;;;;;5.32;4.15;;;12.50;99.90;;;;;;4216172;28;20121;-61
2022/11/16 02:04:08;;;;;;;8.23;3.92;;;12.50;99.90;;;;;;4215489;28;20032;-61
2022/11/16 02:06:12;;;;;;;4.93;3.70;;;12.60;99.90;;;;;;4214278;28;20714;-61
2022/11/16 02:10:57;;;;;;;5.40;4.20;;;12.60;99.90;;;;;;4212201;28;20060;-61
2022/11/16 02:13:30;;;;;;;6.35;3.97;;;12.60;99.90;;;;;;4216662;28;20119;-61
2022/11/16 02:15:36;;;;;;;6.13;4.47;;;12.60;99.90;;;;;;4214904;28;20048;-61
2022/11/16 02:17:43;;;;;;;6.18;4.30;;;12.60;99.90;;;;;;4215228;27;20036;-61
2022/11/16 02:20:22;;;;;;;6.03;3.92;;;12.60;99.90;;;;;;4217579;28;20071;-61
2022/11/16 02:22:42;;;;;;;5.35;3.63;;;12.60;99.90;;;;;;4175862;28;20396;-61
2022/11/16 02:24:55;;;;;;;5.32;3.90;;;12.60;99.90;;;;;;4215832;28;20035;-61
2022/11/16 02:27:14;;;;;;;6.95;4.47;;;12.60;99.90;;;;;;4211733;28;20378;-61
2022/11/16 02:29:20;;;;;;;6.22;4.18;;;12.60;99.90;;;;;;4213470;28;20062;-61
2022/11/16 02:31:26;;;;;;;6.07;4.47;;;12.60;99.90;;;;;;4213071;28;20035;-62
2022/11/16 02:33:36;;;;;;;7.93;4.30;;;12.60;99.90;;;;;;4213611;28;20039;-62
2022/11/16 02:35:42;;;;;;;8.70;4.93;;;12.60;99.90;;;;;;4216369;28;20180;-61
2022/11/16 02:38:11;;;;;;;7.32;4.63;;;12.60;99.90;;;;;;4212922;28;20395;-61
2022/11/16 02:40:14;;;;;;;6.95;4.65;;;12.60;99.90;;;;;;4215525;28;20036;-62
2022/11/16 02:42:44;;;;;;;6.30;4.53;;;12.60;99.90;;;;;;4217083;28;20023;-61
2022/11/16 02:44:47;;;;;;;6.78;4.93;;;12.60;99.90;;;;;;4215884;28;20062;-62
2022/11/16 02:46:53;;;;;;;8.73;4.78;;;12.60;99.90;;;;;;4217136;28;20905;-61
2022/11/16 02:48:59;;;;;;;5.22;4.18;;;12.60;99.90;;;;;;4209646;28;20471;-61
2022/11/16 02:51:01;;;;;;;6.15;4.20;;;12.60;99.90;;;;;;4214770;28;20024;-62
2022/11/16 02:53:02;;;;;;;5.05;4.03;;;12.60;99.90;;;;;;4214882;28;20032;-62
2022/11/16 02:55:03;;;;;;;6.60;4.70;;;12.60;99.90;;;;;;4214550;28;20057;-63
2022/11/16 02:57:04;;;;;;;6.78;4.38;;;12.60;99.90;;;;;;4216297;28;20066;-62
2022/11/16 02:59:04;;;;;;;6.45;4.28;;;12.60;99.90;;;;;;4216008;28;20124;-62
2022/11/16 03:01:11;;;;;;;7.53;4.85;;;12.60;99.90;;;;;;4214374;28;20044;-62
2022/11/16 03:03:24;;;;;;;10.13;4.18;;;12.60;99.90;;;;;;4204581;28;20371;-62
2022/11/16 03:05:32;;;;;;;7.05;4.03;;;12.60;99.90;;;;;;4198761;28;20150;-62
2022/11/16 03:07:39;;;;;;;6.05;4.50;;;12.60;99.90;;;;;;4199547;28;20101;-62
2022/11/16 03:09:41;;;;;;;5.82;4.10;;;12.60;99.90;;;;;;4201909;28;20040;-62
2022/11/16 03:12:01;;;;;;;5.63;4.32;;;12.60;99.90;;;;;;4203346;28;20510;-61
2022/11/16 03:14:06;;;;;;;7.60;4.35;;;12.60;99.90;;;;;;4197778;28;20041;-62
2022/11/16 03:16:12;;;;;;;6.70;3.97;;;12.60;99.90;;;;;;4199388;28;20040;-61
2022/11/16 03:18:14;;;;;;;4.93;3.80;;;12.60;99.90;;;;;;4202739;28;20035;-61
2022/11/16 03:20:21;;;;;;;5.63;4.18;;;12.60;99.90;;;;;;4196105;28;20036;-62
2022/11/16 03:22:29;;;;;;;5.65;3.92;;;12.60;99.90;;;;;;4199904;28;20028;-62
2022/11/16 03:24:30;;;;;;;5.40;3.90;;;12.60;99.90;;;;;;4201810;28;20085;-62
2022/11/16 03:26:52;;;;;;;7.25;4.65;;;12.60;99.90;;;;;;4198942;28;20035;-63
2022/11/16 03:29:00;;;;;;;5.78;4.13;;;12.60;99.90;;;;;;4214704;28;20036;-62
2022/11/16 03:31:06;;;;;;;5.80;3.95;;;12.60;99.90;;;;;;4216148;28;20051;-61
2022/11/16 03:33:18;;;;;;;5.55;4.25;;;12.60;99.90;;;;;;4214395;28;20063;-61
2022/11/16 03:35:26;;;;;;;5.85;4.32;;;12.60;99.90;;;;;;4220983;28;20031;-62
2022/11/16 03:37:28;;;;;;;5.60;3.80;;;12.60;99.90;;;;;;4218028;28;20040;-61
2022/11/16 03:39:32;;;;;;;5.88;4.28;;;12.60;99.90;;;;;;4216761;28;20118;-61
2022/11/16 03:41:36;;;;;;;6.78;3.95;;;12.60;99.90;;;;;;4218292;28;20554;-62
2022/11/16 03:43:38;;;;;;;5.53;4.32;;;12.60;99.90;;;;;;4219101;28;20028;-61
2022/11/16 03:45:39;;;;;;;9.88;5.00;;;12.60;99.90;;;;;;4220243;28;20096;-61
2022/11/16 03:47:41;;;;;;;6.63;4.95;;;12.60;99.90;;;;;;4215563;28;20043;-61
2022/11/16 03:49:46;;;;;;;7.35;4.97;;;12.60;99.90;;;;;;4200376;28;20483;-61
2022/11/16 03:51:48;;;;;;;5.72;4.35;;;12.60;99.90;;;;;;4218411;28;20056;-61
2022/11/16 03:53:48;;;;;;;6.03;4.10;;;12.60;99.90;;;;;;4218885;28;20118;-61
2022/11/16 03:55:49;;;;;;;5.68;4.05;;;12.60;99.90;;;;;;4214273;28;20081;-61
2022/11/16 03:57:50;;;;;;;5.43;3.85;;;12.60;99.90;;;;;;4217895;28;20052;-61
2022/11/16 03:59:50;;;;;;;5.35;3.92;;;12.60;99.90;;;;;;4220911;28;22629;-61
2022/11/16 04:01:51;;;;;;;5.43;4.25;;;12.70;99.90;;;;;;4219717;28;20093;-62
2022/11/16 04:03:52;;;;;;;7.93;4.82;;;12.70;99.90;;;;;;4208252;28;20044;-67
2022/11/16 04:24:45;;;;;;;5.75;3.50;;;12.60;99.90;;;;;;4211751;28;20024;-62
2022/11/16 04:29:12;;;;;;;6.10;3.47;;;12.60;99.90;;;;;;4215536;28;20032;-61
2022/11/16 04:38:11;;;;;;;5.15;3.28;;;12.60;99.90;;;;;;4217420;28;20446;-61
2022/11/16 04:40:12;;;;;;;4.20;3.22;;;12.60;99.90;;;;;;4216696;28;20036;-61
2022/11/16 04:42:18;;;;;;;4.45;2.92;;;12.60;99.90;;;;;;4220407;28;20032;-62
2022/11/16 04:44:19;;;;;;;4.72;3.40;;;12.60;99.90;;;;;;4223024;28;20106;-61
2022/11/16 04:48:39;;;;;;;4.43;3.20;;;12.60;99.90;;;;;;4217448;28;20024;-62
2022/11/16 04:50:40;;;;;;;5.30;2.80;;;12.60;99.90;;;;;;4219468;28;20039;-62
2022/11/16 04:52:40;;;;;;;3.42;2.60;;;12.50;99.90;;;;;;4224796;28;20023;-62
2022/11/16 04:54:41;;;;;;;4.45;2.90;;;12.50;99.90;;;;;;4220070;28;20070;-61
2022/11/16 04:56:41;;;;;;;4.45;2.83;;;12.50;99.90;;;;;;4221471;28;20027;-61
2022/11/16 04:58:42;;;;;;;4.25;2.80;;;12.50;99.90;;;;;;4221805;28;20059;-61
2022/11/16 05:00:42;;;;;;;5.25;2.83;;;12.50;99.90;;;;;;4216712;28;20042;-61
2022/11/16 05:02:43;;;;;;;4.22;3.10;;;12.50;99.90;;;;;;4219680;28;20050;-61
2022/11/16 05:04:43;;;;;;;3.65;2.83;;;12.50;99.90;;;;;;4220337;28;20386;-61
2022/11/16 05:06:44;;;;;;;4.55;2.67;;;12.50;99.90;;;;;;4223104;28;20473;-61
2022/11/16 05:08:45;;;;;;;5.00;2.80;;;12.50;99.90;;;;;;4223370;28;20209;-62
2022/11/16 05:10:50;;;;;;;4.65;2.70;;;12.50;99.90;;;;;;4218187;28;20062;-62
2022/11/16 05:12:50;;;;;;;4.38;2.28;;;12.50;99.90;;;;;;4218289;28;20487;-62
2022/11/16 05:14:52;;;;;;;3.63;2.20;;;12.50;99.90;;;;;;4221267;28;20022;-61
2022/11/16 05:16:52;;;;;;;3.03;2.20;;;12.50;99.90;;;;;;4218767;28;20391;-61
2022/11/16 05:21:17;;;;;;;2.80;1.90;;;12.50;99.90;;;;;;4167488;28;20153;-61
2022/11/16 05:25:36;;;;;;;5.50;2.28;;;12.50;99.90;;;;;;4196592;28;20032;-62
2022/11/16 05:27:37;;;;;;;2.50;2.05;;;12.50;99.90;;;;;;4204346;28;20035;-62
2022/11/16 05:29:38;;;;;;;2.83;2.00;;;12.50;99.90;;;;;;4200700;28;20063;-62
2022/11/16 05:31:39;;;;;;;5.00;1.83;;;12.50;99.90;;;;;;4200355;28;20029;-62
2022/11/16 05:33:39;;;;;;;1.83;1.40;;;12.50;99.90;;;;;;4204213;28;20495;-62
2022/11/16 05:35:40;;;;;;;2.75;1.60;;;12.50;99.90;;;;;;4203266;28;20437;-62
2022/11/16 05:37:41;;;;;;;3.08;2.22;;;12.50;99.90;;;;;;4203770;28;20043;-62
2022/11/16 05:39:42;;;;;;;3.75;1.90;;;12.50;99.90;;;;;;4202630;28;20390;-62
2022/11/16 05:41:42;;;;;;;3.10;1.70;;;12.50;99.90;;;;;;4203085;28;20028;-62
2022/11/16 05:43:43;;;;;;;1.77;1.40;;;12.50;99.90;;;;;;4206004;28;20029;-62
2022/11/16 05:45:43;;;;;;;2.80;1.67;;;12.50;99.90;;;;;;4201865;28;20058;-62
2022/11/16 05:47:44;;;;;;;3.42;2.08;;;12.60;99.90;;;;;;4201787;28;20033;-62
2022/11/16 05:49:44;;;;;;;2.03;1.45;;;12.60;99.90;;;;;;4203608;28;20040;-62
2022/11/16 05:51:46;;;;;;;3.47;1.90;;;12.50;99.90;;;;;;4202772;28;20426;-62
2022/11/16 05:53:48;;;;;;;3.25;2.13;;;12.60;99.90;;;;;;4201443;28;20119;-62
2022/11/16 05:55:48;;;;;;;2.53;1.58;;;12.60;99.90;;;;;;4197467;28;21137;-62
2022/11/16 05:57:49;;;;;;;3.17;1.73;;;12.60;99.90;;;;;;4201994;28;20484;-62
2022/11/16 05:59:50;;;;;;;2.72;1.70;;;12.60;99.90;;;;;;4201284;28;20111;-62
2022/11/16 06:01:50;;;;;;;2.67;1.58;;;12.60;99.90;;;;;;4202741;28;20437;-62
2022/11/16 06:03:51;;;;;;;3.25;2.00;;;12.60;99.90;;;;;;4200305;28;20044;-62
2022/11/16 06:05:54;;;;;;;2.30;1.65;;;12.60;99.90;;;;;;4198327;28;20103;-62
2022/11/16 06:07:55;;;;;;;2.38;1.80;;;12.60;99.90;;;;;;4199658;28;20035;-63
2022/11/16 06:09:55;;;;;;;4.95;1.90;;;12.70;99.90;;;;;;4198969;28;20475;-63
2022/11/16 06:11:56;;;;;;;2.78;1.80;;;12.70;99.90;;;;;;4204905;28;20441;-63
2022/11/16 06:13:56;;;;;;;2.65;1.58;;;12.70;99.90;;;;;;4205071;28;20391;-63
2022/11/16 06:15:58;;;;;;;2.47;1.70;;;12.70;99.90;;;;;;4203355;28;20444;-63
2022/11/16 06:17:59;;;;;;;3.28;1.70;;;12.70;99.90;;;;;;4199766;28;20116;-62
2022/11/16 06:20:00;;;;;;;2.92;1.90;;;12.70;99.90;;;;;;4202717;28;20372;-62
2022/11/16 06:22:00;;;;;;;3.72;1.75;;;12.60;99.90;;;;;;4199494;28;20020;-62
2022/11/16 06:24:02;;;;;;;2.47;1.95;;;12.60;99.90;;;;;;4199939;28;20127;-63
2022/11/16 06:26:03;;;;;;;3.55;2.40;;;12.60;99.90;;;;;;4197368;28;20035;-62
2022/11/16 06:28:05;;;;;;;1.70;1.60;;;12.60;99.90;;;;;;4202854;28;20028;-63
2022/11/16 06:30:06;;;;;;;3.40;2.13;;;12.60;99.90;;;;;;4200145;28;20115;-62
2022/11/16 06:32:07;;;;;;;4.70;2.15;;;12.60;99.90;;;;;;4198818;28;20032;-62
2022/11/16 06:34:07;;;;;;;5.00;2.28;;;12.60;99.90;;;;;;4198686;28;20032;-62
2022/11/16 06:36:08;;;;;;;3.35;2.25;;;12.60;99.90;;;;;;4197081;28;20086;-62
2022/11/16 06:38:09;;;;;;;4.88;2.53;;;12.60;99.90;;;;;;4200430;28;20126;-62
2022/11/16 06:40:10;;;;;;;2.97;2.20;;;12.60;99.90;;;;;;4213378;28;20036;-63
2022/11/16 06:42:11;;;;;;;4.43;2.60;;;12.60;99.90;;;;;;4225011;28;20039;-62
2022/11/16 06:44:11;;;;;;;4.35;2.55;;;12.60;99.90;;;;;;4214098;28;20441;-62
2022/11/16 06:46:12;;;;;;;6.70;2.58;;;12.60;99.90;;;;;;4216263;28;20060;-62
2022/11/16 06:48:12;;;;;;;5.43;3.00;;;12.60;99.90;;;;;;4224548;28;20027;-62
2022/11/16 06:50:13;;;;;;;6.15;2.58;;;12.60;99.90;;;;;;4211975;28;20055;-62
2022/11/16 06:52:13;;;;;;;3.78;2.40;;;12.60;99.90;;;;;;4219741;28;20143;-63
2022/11/16 06:54:14;;;;;;;4.18;3.08;;;12.60;99.90;;;;;;4201578;28;20033;-63
2022/11/16 06:56:15;;;;;;;5.50;3.13;;;12.60;99.90;;;;;;4194448;28;20088;-78
2022/11/16 06:58:16;;;;;;;3.58;2.20;;;12.60;99.90;;;;;;4196527;28;20365;-78
2022/11/16 07:00:17;;;;;;;3.97;2.78;;;12.60;99.90;;;;;;4195900;28;20040;-77
2022/11/16 07:02:20;;;;;;;3.70;2.42;;;12.60;99.90;;;;;;4196427;28;20052;-78
2022/11/16 07:04:20;;;;;;;5.13;2.50;;;12.60;99.90;;;;;;4195698;28;20112;-78
2022/11/16 07:06:21;;;;;;;8.18;2.75;;;12.60;99.90;;;;;;4195609;28;20028;-78
2022/11/16 07:08:21;;;;;;;4.68;2.60;;;12.50;99.90;;;;;;4196359;28;20116;-78
2022/11/16 07:10:22;;;;;;;7.95;2.80;;;12.50;99.90;;;;;;4195851;28;20403;-79
2022/11/16 07:12:23;;;;;;;4.57;2.92;;;12.50;99.90;;;;;;4196322;28;20025;-79
2022/11/16 07:14:24;;;;;;;6.10;3.30;;;12.50;99.90;;;;;;4195715;28;20036;-78
2022/11/16 07:16:24;;;;;;;5.03;3.40;;;12.50;99.90;;;;;;4194396;28;20041;-79
2022/11/16 07:18:25;;;;;;;7.30;3.25;;;12.50;99.90;;;;;;4212443;28;20036;-78
2022/11/16 07:20:25;;;;;;;4.38;2.88;;;12.50;99.90;;;;;;4211870;28;20032;-75
2022/11/16 07:22:26;;;;;;;7.78;3.30;;;12.40;99.90;;;;;;4212750;28;20035;-79
2022/11/16 07:24:26;;;;;;;4.95;2.70;;;12.40;99.90;;;;;;4212288;28;20035;-78
2022/11/16 07:26:29;;;;;;;4.93;2.80;;;12.50;99.90;;;;;;4211928;28;20028;-78
2022/11/16 07:28:30;;;;;;;4.63;2.38;;;12.40;99.90;;;;;;4212534;28;20036;-78
2022/11/16 07:30:31;;;;;;;5.85;3.03;;;12.40;99.90;;;;;;4211873;28;20086;-79
2022/11/16 07:32:32;;;;;;;4.78;2.88;;;12.40;99.90;;;;;;4212309;28;20032;-79
2022/11/16 07:34:32;;;;;;;4.13;2.72;;;12.40;99.90;;;;;;4212173;28;20089;-78
2022/11/16 07:36:33;;;;;;;3.92;2.78;;;12.40;99.90;;;;;;4211759;28;20449;-79
2022/11/16 07:38:34;;;;;;;4.18;2.40;;;12.40;99.90;;;;;;4194449;28;20048;-78
2022/11/16 07:40:34;;;;;;;5.47;2.97;;;12.40;99.90;;;;;;4211381;28;20032;-75
2022/11/16 07:42:35;;;;;;;5.20;2.95;;;12.40;99.90;;;;;;4211984;28;20032;-77
2022/11/16 07:44:36;;;;;;;6.75;3.67;;;12.30;99.90;;;;;;4212026;28;20036;-77
2022/11/16 07:46:37;;;;;;;6.88;3.03;;;12.30;99.90;;;;;;4193717;28;20468;-77
2022/11/16 07:48:37;;;;;;;6.60;2.42;;;12.30;99.90;;;;;;4212194;28;20031;-78
2022/11/16 07:50:38;;;;;;;3.13;2.35;;;12.30;99.90;;;;;;4211566;28;20032;-78
2022/11/16 07:52:38;;;;;;;6.85;2.28;;;12.40;99.90;;;;;;4211910;28;20032;-77
2022/11/16 07:54:39;;;;;;;3.33;2.08;;;12.50;99.90;;;;;;4194618;28;20059;-78
2022/11/16 07:56:40;;;;;;;5.90;2.63;;;12.60;99.90;;;;;;4211180;28;20043;-77
2022/11/16 07:58:41;;;;;;;7.38;2.42;;;12.80;99.90;;;;;;4212129;28;20463;-77
2022/11/16 08:00:41;;;;;;;2.90;1.60;;;12.80;99.90;;;;;;4211349;28;20053;-78
2022/11/16 08:02:42;;;;;;;3.92;2.20;;;13.10;99.90;;;;;;4212017;28;20028;-77
2022/11/16 08:04:42;;;;;;;5.10;2.90;;;13.20;99.90;;;;;;4212148;28;20030;-78
2022/11/16 08:06:44;;;;;;;5.65;2.80;;;13.40;99.90;;;;;;4211623;28;20028;-78
2022/11/16 08:08:44;;;;;;;6.88;2.70;;;13.60;99.90;;;;;;4212264;28;20090;-77
2022/11/16 08:10:45;;;;;;;8.02;2.10;;;13.80;99.90;;;;;;4211212;28;20020;-77
2022/11/16 08:12:46;;;;;;;4.35;1.98;;;14.00;99.90;;;;;;4212124;28;20392;-77
2022/11/16 08:14:46;;;;;;;5.97;2.38;;;14.20;99.90;;;;;;4211810;28;20383;-77
2022/11/16 08:16:47;;;;;;;5.70;2.20;;;14.40;99.90;;;;;;4211058;28;20048;-77
2022/11/16 08:18:48;;;;;;;6.32;2.17;;;14.60;99.90;;;;;;4211969;28;20093;-77
2022/11/16 08:20:48;;;;;;;4.30;1.90;;;14.80;99.90;;;;;;4210992;28;20111;-78
2022/11/16 08:22:49;;;;;;;6.28;2.30;;;15.00;99.90;;;;;;4212049;28;20036;-76
2022/11/16 08:24:50;;;;;;;6.28;2.50;;;15.20;99.90;;;;;;4211973;28;20020;-76
2022/11/16 08:26:50;;;;;;;7.78;2.63;;;15.40;99.90;;;;;;4193782;28;20056;-77
2022/11/16 08:28:52;;;;;;;6.40;2.33;;;15.60;99.90;;;;;;4211481;28;20141;-77
2022/11/16 08:30:53;;;;;;;8.73;2.38;;;15.70;99.90;;;;;;4211027;28;20029;-77
2022/11/16 08:32:54;;;;;;;4.75;1.92;;;15.80;99.90;;;;;;4211893;28;20081;-77
2022/11/16 08:34:55;;;;;;;3.92;2.20;;;15.90;99.90;;;;;;4211737;28;20040;-77
2022/11/16 08:36:55;;;;;;;3.70;1.90;;;16.00;99.90;;;;;;4210781;28;20032;-76
2022/11/16 08:38:56;;;;;;;5.65;2.47;;;15.90;99.90;;;;;;4211459;28;20028;-76
2022/11/16 08:40:57;;;;;;;7.35;2.38;;;15.90;99.90;;;;;;4211295;28;20050;-76
2022/11/16 08:42:58;;;;;;;7.20;2.58;;;15.90;99.90;;;;;;4211832;28;20024;-75
2022/11/16 08:44:59;;;;;;;7.47;2.60;;;16.00;99.90;;;;;;4212139;28;20027;-75
2022/11/16 08:46:59;;;;;;;5.28;2.17;;;16.00;99.90;;;;;;4211427;28;20035;-75
2022/11/16 08:49:00;;;;;;;5.05;2.15;;;16.00;99.90;;;;;;4211726;28;20033;-76
2022/11/16 08:51:02;;;;;;;8.27;3.13;;;16.10;99.90;;;;;;4211384;28;20507;-75
2022/11/16 08:53:03;;;;;;;;;;;16.20;99.90;;;;;;4212388;28;20032;-75
2022/11/16 08:55:04;;;;;;;6.00;2.97;;;16.20;99.90;;;;;;4211684;28;20251;-75
2022/11/16 08:57:04;;;;;;;5.68;2.75;;;16.10;99.90;;;;;;4211134;28;20043;-75
2022/11/16 08:59:05;;;;;;;7.43;2.80;;;16.20;99.90;;;;;;4191149;28;20073;-75
2022/11/16 09:01:12;;;;;;;8.90;3.17;;;16.10;99.90;;;;;;4194480;28;20036;-72
2022/11/16 09:03:13;;;;;;;6.10;2.88;;;16.20;99.90;;;;;;4195327;28;20032;-72
2022/11/16 09:05:14;;;;;;;10.45;4.30;;;16.40;99.90;;;;;;4194844;28;20040;-73
2022/11/16 09:07:14;;;;;;;8.88;3.00;;;16.50;99.90;;;;;;4195180;28;20056;-73
2022/11/16 09:09:15;;;;;;;5.57;2.58;;;16.40;99.90;;;;;;4195253;28;20145;-73
2022/11/16 09:11:19;;;;;;;5.10;2.00;;;16.50;99.90;;;;;;4194966;28;20489;-73
2022/11/16 09:13:19;;;;;;;7.53;2.42;;;16.50;99.90;;;;;;4195430;28;20037;-72
2022/11/16 09:15:20;;;;;;;6.50;2.47;;;16.50;99.90;;;;;;4194983;28;20498;-73
2022/11/16 09:17:20;;;;;;;6.60;2.00;;;16.50;99.90;;;;;;4194571;28;20045;-73
2022/11/16 09:19:21;;;;;;;5.88;1.75;;;16.40;99.90;;;;;;4195420;28;20123;-72
2022/11/16 09:21:26;;;;;;;12.35;2.20;;;16.30;99.90;;;;;;4194816;28;20035;-73
2022/11/16 09:23:27;;;;;;;5.60;1.83;;;16.20;99.90;;;;;;4195223;28;20032;-73
2022/11/16 09:25:28;;;;;;;4.93;1.52;;;16.10;99.90;;;;;;4211582;28;20521;-71
2022/11/16 09:27:28;;;;;;;3.95;1.55;;;16.00;99.90;;;;;;4213818;28;20035;-72
2022/11/16 09:29:29;;;;;;;7.13;1.80;;;16.10;99.90;;;;;;4215111;28;20547;-71
2022/11/16 09:31:33;;;;;;;5.82;1.60;;;15.80;99.90;;;;;;4214528;28;20032;-71
2022/11/16 09:33:34;;;;;;;8.27;2.10;;;15.80;99.90;;;;;;4214773;28;20383;-71
2022/11/16 09:35:34;;;;;;;7.53;2.17;;;15.50;99.90;;;;;;4213965;28;20107;-72
2022/11/16 09:37:35;;;;;;;5.05;1.90;;;15.30;99.90;;;;;;4196429;28;20123;-72
2022/11/16 09:39:35;;;;;;;7.05;1.67;;;15.10;99.90;;;;;;4214741;28;20024;-73
2022/11/16 09:41:50;;;;;;;5.55;1.70;;;15.00;99.90;;;;;;4195674;28;20020;-71
2022/11/16 09:44:06;;;;;;;8.40;2.10;;;14.80;99.90;;;;;;4214369;28;20115;-72
2022/11/16 09:46:25;;;;;;;10.18;2.30;;;14.70;99.90;;;;;;4196712;28;20533;-71
2022/11/16 09:48:27;;;;;;;7.00;2.20;;;14.50;99.90;;;;;;4197863;28;20495;-72
2022/11/16 09:50:30;;;;;;;5.70;1.98;;;14.50;99.90;;;;;;4197100;28;20486;-71
2022/11/16 09:52:33;;;;;;;5.72;2.10;;;14.30;99.90;;;;;;4197325;28;20043;-71
2022/11/16 09:54:38;;;;;;;6.00;2.03;;;14.20;99.90;;;;;;4196441;28;20054;-71
2022/11/16 09:56:40;;;;;;;5.20;1.65;;;14.00;99.90;;;;;;4196713;28;20025;-71
2022/11/16 09:58:47;;;;;;;9.52;2.03;;;13.90;99.90;;;;;;4197712;28;20043;-72
2022/11/16 10:00:54;;;;;;;7.95;2.10;;;13.90;99.90;;;;;;4196922;28;20030;-71
2022/11/16 10:03:04;;;;;;;5.60;1.83;;;13.80;99.90;;;;;;4197811;28;20032;-71
2022/11/16 10:05:17;;;;;;;6.30;1.77;;;13.70;99.90;;;;;;4197300;28;20051;-72
2022/11/16 10:07:33;;;;;;;8.50;2.17;;;13.60;99.90;;;;;;4197353;28;20028;-71
2022/11/16 10:09:34;;;;;;;7.07;1.55;;;13.60;99.90;;;;;;4197262;28;20079;-71
2022/11/16 10:12:01;;;;;;;5.90;1.70;;;13.50;99.90;;;;;;4196771;28;20028;-71
2022/11/16 10:14:20;;;;;;;6.57;2.00;;;13.50;99.90;;;;;;4184215;28;20044;-71
2022/11/16 10:16:47;;;;;;;8.70;2.55;;;13.40;99.90;;;;;;4196239;28;20075;-71
2022/11/16 10:19:36;;;;;;;5.93;1.52;;;13.40;99.90;;;;;;4196857;28;20476;-71
2022/11/16 10:21:56;;;;;;;4.60;1.60;;;13.40;99.90;;;;;;4151062;28;20467;-70
2022/11/16 10:23:56;;;;;;;5.38;1.88;;;13.30;99.90;;;;;;4197010;28;20111;-71
2022/11/16 10:26:18;;;;;;;6.53;1.90;;;13.30;99.90;;;;;;4196749;28;20380;-71
2022/11/16 10:28:21;;;;;;;9.73;2.40;;;13.20;99.90;;;;;;4197035;28;20067;-71
2022/11/16 10:30:22;;;;;;;8.55;2.47;;;13.20;99.90;;;;;;4196428;28;20025;-71
2022/11/16 10:32:29;;;;;;;8.75;2.20;;;13.20;99.90;;;;;;4195948;28;20036;-71
2022/11/16 10:34:40;;;;;;;5.65;1.65;;;13.20;99.90;;;;;;4196878;28;20028;-70
2022/11/16 10:36:41;;;;;;;9.15;2.70;;;13.20;99.90;;;;;;4195772;28;20024;-70
2022/11/16 10:38:43;;;;;;;9.65;2.75;;;13.20;99.90;;;;;;4196048;28;20059;-70
2022/11/16 10:40:51;;;;;;;6.38;1.83;;;13.20;99.90;;;;;;4195474;28;20069;-70
2022/11/16 10:43:16;;;;;;;6.07;2.00;;;13.20;99.90;;;;;;4196999;28;20043;-70
2022/11/16 10:45:32;;;;;;;6.30;1.92;;;13.20;99.90;;;;;;4196058;28;20032;-70
2022/11/16 10:47:58;;;;;;;6.80;2.10;;;13.30;99.90;;;;;;4196798;28;20549;-70
2022/11/16 10:50:18;;;;;;;5.53;1.80;;;13.20;99.90;;;;;;4196301;28;20032;-70
2022/11/16 10:52:18;;;;;;;10.02;1.80;;;13.30;99.90;;;;;;4196273;28;20060;-70
2022/11/16 10:54:19;;;;;;;7.60;1.80;;;13.30;99.90;;;;;;4196926;28;20036;-70
2022/11/16 10:56:25;;;;;;;4.07;1.30;;;13.40;99.90;;;;;;4196296;28;20112;-71
2022/11/16 10:58:25;;;;;;;6.80;1.60;;;13.50;99.90;;;;;;4195472;28;20118;-70
2022/11/16 11:00:41;;;;;;;4.20;1.40;;;13.50;99.90;;;;;;4196273;28;20036;-70
2022/11/16 11:02:47;;;;;;;3.72;1.02;;;13.50;99.90;;;;;;4196282;28;20039;-70
2022/11/16 11:05:19;;;;;;;8.75;1.52;;;13.60;99.90;;;;;;4196360;28;20058;-71
2022/11/16 11:07:30;;;;;;;3.15;1.10;;;13.70;99.90;;;;;;4196049;28;20506;-70
2022/11/16 11:09:34;;;;;;;7.72;1.40;;;13.70;99.90;;;;;;4196402;28;20108;-70
2022/11/16 11:14:09;;;;;;;5.50;1.65;;;13.80;99.90;;;;;;4196465;28;20029;-70
2022/11/16 11:16:17;;;;;;;7.22;1.42;;;13.80;99.90;;;;;;4195123;28;20040;-70
2022/11/16 11:18:22;;;;;;;6.53;1.70;;;13.80;99.90;;;;;;4196339;28;20506;-70
2022/11/16 11:20:23;;;;;;;3.78;1.35;;;13.80;99.90;;;;;;4195569;28;20035;-71
2022/11/16 11:22:23;;;;;;;6.75;1.45;;;13.90;99.90;;;;;;4196362;28;20064;-71
2022/11/16 11:24:26;;;;;;;4.40;1.33;;;13.80;99.90;;;;;;4196507;28;20066;-70